createdAt,value
2022-11-08T00:00:44.601Z,100638.00
2022-11-08T00:03:12.533Z,100636.20
2022-11-08T00:05:59.294Z,100634.80
2022-11-08T00:08:45.624Z,100638.80
2022-11-08T00:11:32.368Z,100636.20
2022-11-08T00:14:00.644Z,100635.40
2022-11-08T00:16:29.518Z,100633.80
2022-11-08T00:18:57.549Z,100628.80
2022-11-08T00:21:25.679Z,100628.20
2022-11-08T00:23:54.075Z,100635.60
2022-11-08T00:26:21.879Z,100632.80
2022-11-08T00:28:49.696Z,100634.80
2022-11-08T00:31:17.478Z,100638.40
2022-11-08T00:33:45.460Z,100636.40
2022-11-08T00:36:13.218Z,100636.60
2022-11-08T00:38:43.677Z,100640.80
2022-11-08T00:41:12.472Z,100640.20
2022-11-08T00:43:40.618Z,100640.40
2022-11-08T00:46:08.546Z,100633.00
2022-11-08T00:48:36.287Z,100640.00
2022-11-08T00:51:06.789Z,100636.40
2022-11-08T00:53:38.383Z,100629.80
2022-11-08T00:56:10.444Z,100632.00
2022-11-08T00:58:38.875Z,100631.40
2022-11-08T01:01:16.727Z,100628.40
2022-11-08T01:03:45.554Z,100625.60
2022-11-08T01:06:15.824Z,100628.40
2022-11-08T01:08:44.840Z,100627.80
2022-11-08T01:11:20.740Z,100624.60
2022-11-08T01:13:49.949Z,100626.40
2022-11-08T01:16:24.880Z,100629.40
2022-11-08T01:18:55.380Z,100624.00
2022-11-08T01:21:24.471Z,100627.80
2022-11-08T01:23:54.268Z,100620.80
2022-11-08T01:26:26.737Z,100621.20
2022-11-08T01:28:55.869Z,100620.60
2022-11-08T01:31:28.374Z,100615.60
2022-11-08T01:33:58.583Z,100619.60
2022-11-08T01:36:28.424Z,100617.80
2022-11-08T01:38:57.191Z,100614.60
2022-11-08T01:41:26.224Z,100611.40
2022-11-08T01:43:59.014Z,100612.00
2022-11-08T01:46:33.441Z,100615.00
2022-11-08T01:49:28.437Z,100611.20
2022-11-08T01:51:59.140Z,100612.80
2022-11-08T01:55:11.235Z,100612.80
2022-11-08T01:58:06.554Z,100610.20
2022-11-08T02:00:38.252Z,100611.20
2022-11-08T02:05:27.595Z,100619.60
2022-11-08T02:08:22.437Z,100616.40
2022-11-08T02:10:53.433Z,100616.60
2022-11-08T02:13:26.010Z,100618.00
2022-11-08T02:15:53.890Z,100614.60
2022-11-08T02:18:30.207Z,100616.20
2022-11-08T02:21:20.786Z,100606.00
2022-11-08T02:23:50.485Z,100609.20
2022-11-08T02:26:23.288Z,100618.40
2022-11-08T02:28:51.234Z,100615.40
2022-11-08T02:31:20.287Z,100609.40
2022-11-08T02:33:49.093Z,100611.80
2022-11-08T02:36:22.300Z,100611.60
2022-11-08T02:38:56.906Z,100610.00
2022-11-08T02:41:24.735Z,100607.60
